Athens, LA

10:47 PM CDT on September 01, 2014 (GMT -0500)
South Arkansas Regional At Goodwin | Change Station
CLOSE
Current Station
Airport
Location: El Dorado,
Elevation: 276 ft
Nearby Weather Stations

Elev 276 ft 33.22 °N, 92.81 °W | Updated 54 minutes ago

Clear
Clear
79 °F
Feels Like 79 °F
N
8
Wind Variable Wind from SSE

Today
High -- | Low -- °F
--% Chance of Precip.
Yesterday
High -- | Low -- °F
Precip. -- in
6:46 AM 7:36 PM
Waxing Crescent, 47% visible
Pressure 29.95 in
Visibility 10.0 miles
Clouds Clear
Dew Point 75 °F
Humidity 88%
Rainfall 0.03 in
Snow Depth Not available.
UV 0 out of 12
Pollen 9.90 out of 12
Air Quality Not available.
Flu Activity Not available.
METAR KELD 020253Z AUTO 16007KT 10SM CLR 26/24 A2996 RMK AO2 SLP141 T02610239 51007

More Conditions Fewer Conditions

Pressure 29.95 in
Visibility 10.0 miles
Clouds Clear
Dew Point 75 °F
Humidity 88%
Rainfall 0.03 in
Snow Depth Not available.
UV 0 out of 12
Pollen 9.90 out of 12
Air Quality Not available.
Flu Activity Not available.
METAR KELD 020253Z AUTO 16007KT 10SM CLR 26/24 A2996 RMK AO2 SLP141 T02610239 51007

More Conditions Fewer Conditions

10-Day Weather Forecast

Almanac

Astronomy

Sep. 01, 2014 Rise Set
Actual Time 6:46 AM CDT 7:36 PM CDT
Civil Twilight 6:21 AM CDT 8:01 PM CDT
Nautical Twilight 5:51 AM CDT 8:31 PM CDT
Astronomical Twilight 5:21 AM CDT 9:01 PM CDT
Moon 1:11 PM CDT (9/1) No Moon Set
Length of Visible Light 13h 40m
Length of Day
12h 49m
Tomorrow will be 1m 56s shorter.
Waxing Crescent, 47% of the Moon is Illuminated
Today
Waxing Crescent
Sep 2
First Quarter
Sep 8
Full
Sep 15
Last Quarter
Sep 24
New

Today's Extremes

State Highs State Lows

Community

WunderPhotos

Upload Photos

1,749,557 photos uploaded!

WunderBlogs® & News

Nearby

Snow Depth

Station Depth Elevation
No new snow has been reported.

Earthquake Activity

City Distance Mag. Time & Date
No recent earthquake activity has been reported nearby.
Minimum magnitude displayed is 2.5.

Coastal Water Temperatures

Place Temperature
No Stations Reporting

Nearby Weather Stations